sensor_id;sensor_type;location;lat;lon;timestamp;P1;durP1;ratioP1;P2;durP2;ratioP2
51957;SDS011;41120;51.820;20.804;2023-04-12T00:00:21;22.90;;;14.75;;
51957;SDS011;41120;51.820;20.804;2023-04-12T00:03:21;19.98;;;13.35;;
51957;SDS011;41120;51.820;20.804;2023-04-12T00:05:53;16.38;;;10.95;;
51957;SDS011;41120;51.820;20.804;2023-04-12T00:11:40;12.85;;;9.15;;
51957;SDS011;41120;51.820;20.804;2023-04-12T00:23:49;9.90;;;6.65;;
51957;SDS011;41120;51.820;20.804;2023-04-12T00:29:24;8.82;;;6.07;;
51957;SDS011;41120;51.820;20.804;2023-04-12T00:31:55;8.23;;;6.03;;
51957;SDS011;41120;51.820;20.804;2023-04-12T00:38:00;8.25;;;6.00;;
51957;SDS011;41120;51.820;20.804;2023-04-12T00:40:28;6.80;;;5.00;;
51957;SDS011;41120;51.820;20.804;2023-04-12T00:49:24;7.80;;;5.47;;
51957;SDS011;41120;51.820;20.804;2023-04-12T01:18:32;8.68;;;6.55;;
51957;SDS011;41120;51.820;20.804;2023-04-12T01:21:19;7.93;;;6.40;;
51957;SDS011;41120;51.820;20.804;2023-04-12T01:30:12;9.75;;;7.03;;
51957;SDS011;41120;51.820;20.804;2023-04-12T01:32:44;10.38;;;7.57;;
51957;SDS011;41120;51.820;20.804;2023-04-12T01:37:58;11.27;;;8.55;;
51957;SDS011;41120;51.820;20.804;2023-04-12T01:43:06;10.90;;;8.10;;
51957;SDS011;41120;51.820;20.804;2023-04-12T01:45:34;13.40;;;8.70;;
51957;SDS011;41120;51.820;20.804;2023-04-12T01:57:24;16.25;;;10.77;;
51957;SDS011;41120;51.820;20.804;2023-04-12T01:59:54;15.52;;;10.05;;
51957;SDS011;41120;51.820;20.804;2023-04-12T02:02:24;18.80;;;10.95;;
51957;SDS011;41120;51.820;20.804;2023-04-12T02:04:57;17.67;;;11.18;;
51957;SDS011;41120;51.820;20.804;2023-04-12T02:13:08;19.63;;;12.07;;
51957;SDS011;41120;51.820;20.804;2023-04-12T02:24:24;18.20;;;11.38;;
51957;SDS011;41120;51.820;20.804;2023-04-12T02:26:59;21.52;;;12.18;;
51957;SDS011;41120;51.820;20.804;2023-04-12T02:32:32;23.08;;;14.00;;
51957;SDS011;41120;51.820;20.804;2023-04-12T02:35:24;22.90;;;13.23;;
51957;SDS011;41120;51.820;20.804;2023-04-12T02:38:00;24.55;;;14.45;;
51957;SDS011;41120;51.820;20.804;2023-04-12T02:43:17;21.63;;;13.27;;
51957;SDS011;41120;51.820;20.804;2023-04-12T02:46:01;25.92;;;14.88;;
51957;SDS011;41120;51.820;20.804;2023-04-12T02:57:24;24.48;;;15.43;;
51957;SDS011;41120;51.820;20.804;2023-04-12T03:02:38;27.23;;;17.85;;
51957;SDS011;41120;51.820;20.804;2023-04-12T03:05:15;27.13;;;17.00;;
51957;SDS011;41120;51.820;20.804;2023-04-12T03:07:50;28.55;;;17.67;;
51957;SDS011;41120;51.820;20.804;2023-04-12T03:13:08;26.35;;;16.33;;
51957;SDS011;41120;51.820;20.804;2023-04-12T03:19:00;29.77;;;17.83;;
51957;SDS011;41120;51.820;20.804;2023-04-12T03:34:01;29.48;;;18.90;;
51957;SDS011;41120;51.820;20.804;2023-04-12T03:45:01;28.58;;;18.38;;
51957;SDS011;41120;51.820;20.804;2023-04-12T03:47:27;35.08;;;20.17;;
51957;SDS011;41120;51.820;20.804;2023-04-12T03:56:29;30.75;;;18.10;;
51957;SDS011;41120;51.820;20.804;2023-04-12T03:59:01;33.47;;;19.13;;
51957;SDS011;41120;51.820;20.804;2023-04-12T04:14:02;33.45;;;20.25;;
51957;SDS011;41120;51.820;20.804;2023-04-12T04:16:40;32.47;;;19.90;;
51957;SDS011;41120;51.820;20.804;2023-04-12T04:25:22;31.30;;;19.65;;
51957;SDS011;41120;51.820;20.804;2023-04-12T04:28:28;35.35;;;20.90;;
51957;SDS011;41120;51.820;20.804;2023-04-12T04:31:18;34.40;;;20.55;;
51957;SDS011;41120;51.820;20.804;2023-04-12T04:34:02;32.38;;;19.50;;
51957;SDS011;41120;51.820;20.804;2023-04-12T04:36:35;36.63;;;21.48;;
51957;SDS011;41120;51.820;20.804;2023-04-12T04:39:15;35.90;;;21.20;;
51957;SDS011;41120;51.820;20.804;2023-04-12T04:41:44;36.05;;;20.63;;
51957;SDS011;41120;51.820;20.804;2023-04-12T04:44:19;37.70;;;20.00;;
51957;SDS011;41120;51.820;20.804;2023-04-12T04:46:50;37.10;;;20.42;;
51957;SDS011;41120;51.820;20.804;2023-04-12T04:49:19;34.92;;;20.33;;
51957;SDS011;41120;51.820;20.804;2023-04-12T04:51:45;35.15;;;19.75;;
51957;SDS011;41120;51.820;20.804;2023-04-12T04:54:15;38.00;;;21.45;;
51957;SDS011;41120;51.820;20.804;2023-04-12T04:56:46;36.83;;;20.42;;
51957;SDS011;41120;51.820;20.804;2023-04-12T05:01:57;36.20;;;20.20;;
51957;SDS011;41120;51.820;20.804;2023-04-12T05:04:29;38.50;;;21.17;;
51957;SDS011;41120;51.820;20.804;2023-04-12T05:06:56;39.28;;;21.73;;
51957;SDS011;41120;51.820;20.804;2023-04-12T05:09:23;39.35;;;21.27;;
51957;SDS011;41120;51.820;20.804;2023-04-12T05:11:51;35.63;;;20.65;;
51957;SDS011;41120;51.820;20.804;2023-04-12T05:16:49;35.35;;;19.75;;
51957;SDS011;41120;51.820;20.804;2023-04-12T05:19:17;35.63;;;20.65;;
51957;SDS011;41120;51.820;20.804;2023-04-12T05:24:14;37.80;;;20.75;;
51957;SDS011;41120;51.820;20.804;2023-04-12T05:26:44;33.47;;;19.48;;
51957;SDS011;41120;51.820;20.804;2023-04-12T05:29:15;34.05;;;18.63;;
51957;SDS011;41120;51.820;20.804;2023-04-12T05:31:44;34.40;;;19.65;;
51957;SDS011;41120;51.820;20.804;2023-04-12T05:34:13;36.28;;;19.33;;
51957;SDS011;41120;51.820;20.804;2023-04-12T05:36:47;32.83;;;18.45;;
51957;SDS011;41120;51.820;20.804;2023-04-12T05:42:04;32.90;;;19.52;;
51957;SDS011;41120;51.820;20.804;2023-04-12T05:44:33;33.38;;;17.55;;
51957;SDS011;41120;51.820;20.804;2023-04-12T05:47:03;30.90;;;17.77;;
51957;SDS011;41120;51.820;20.804;2023-04-12T05:55:35;34.80;;;18.40;;
51957;SDS011;41120;51.820;20.804;2023-04-12T05:58:03;28.77;;;16.10;;
51957;SDS011;41120;51.820;20.804;2023-04-12T06:06:31;30.42;;;17.10;;
51957;SDS011;41120;51.820;20.804;2023-04-12T06:09:03;29.65;;;17.42;;
51957;SDS011;41120;51.820;20.804;2023-04-12T06:11:46;33.55;;;17.70;;
51957;SDS011;41120;51.820;20.804;2023-04-12T06:16:51;29.80;;;17.38;;
51957;SDS011;41120;51.820;20.804;2023-04-12T06:19:20;26.08;;;16.60;;
51957;SDS011;41120;51.820;20.804;2023-04-12T06:22:04;27.55;;;16.50;;
51957;SDS011;41120;51.820;20.804;2023-04-12T06:49:26;22.03;;;13.47;;
51957;SDS011;41120;51.820;20.804;2023-04-12T07:05:04;16.67;;;11.00;;
51957;SDS011;41120;51.820;20.804;2023-04-12T07:07:37;16.37;;;10.93;;
51957;SDS011;41120;51.820;20.804;2023-04-12T07:10:05;15.30;;;10.97;;
51957;SDS011;41120;51.820;20.804;2023-04-12T07:16:36;16.60;;;10.05;;
51957;SDS011;41120;51.820;20.804;2023-04-12T07:19:10;14.17;;;9.97;;
51957;SDS011;41120;51.820;20.804;2023-04-12T07:21:38;16.60;;;10.33;;
51957;SDS011;41120;51.820;20.804;2023-04-12T07:24:05;16.30;;;11.60;;
51957;SDS011;41120;51.820;20.804;2023-04-12T07:26:32;17.93;;;11.57;;
51957;SDS011;41120;51.820;20.804;2023-04-12T07:31:36;17.07;;;10.33;;
51957;SDS011;41120;51.820;20.804;2023-04-12T07:36:35;16.80;;;10.83;;
51957;SDS011;41120;51.820;20.804;2023-04-12T07:44:31;14.67;;;9.60;;
51957;SDS011;41120;51.820;20.804;2023-04-12T07:47:01;16.37;;;10.37;;
51957;SDS011;41120;51.820;20.804;2023-04-12T07:49:29;17.10;;;11.30;;
51957;SDS011;41120;51.820;20.804;2023-04-12T07:51:56;19.87;;;11.47;;
51957;SDS011;41120;51.820;20.804;2023-04-12T07:57:06;20.67;;;12.83;;
51957;SDS011;41120;51.820;20.804;2023-04-12T07:59:35;19.07;;;12.83;;
51957;SDS011;41120;51.820;20.804;2023-04-12T08:07:47;17.10;;;11.47;;
51957;SDS011;41120;51.820;20.804;2023-04-12T08:10:15;17.90;;;11.67;;
51957;SDS011;41120;51.820;20.804;2023-04-12T08:16:27;16.70;;;11.43;;
51957;SDS011;41120;51.820;20.804;2023-04-12T08:22:10;14.87;;;10.00;;
51957;SDS011;41120;51.820;20.804;2023-04-12T08:24:58;13.70;;;9.83;;
51957;SDS011;41120;51.820;20.804;2023-04-12T08:31:20;15.03;;;10.23;;
51957;SDS011;41120;51.820;20.804;2023-04-12T08:33:59;15.63;;;10.20;;
51957;SDS011;41120;51.820;20.804;2023-04-12T08:36:27;15.20;;;10.00;;
51957;SDS011;41120;51.820;20.804;2023-04-12T08:39:05;15.63;;;10.37;;
51957;SDS011;41120;51.820;20.804;2023-04-12T08:41:32;15.07;;;10.07;;
51957;SDS011;41120;51.820;20.804;2023-04-12T08:43:59;14.37;;;9.77;;
51957;SDS011;41120;51.820;20.804;2023-04-12T08:46:34;13.50;;;9.73;;
51957;SDS011;41120;51.820;20.804;2023-04-12T08:52:37;13.87;;;9.60;;
51957;SDS011;41120;51.820;20.804;2023-04-12T08:55:35;14.20;;;9.77;;
51957;SDS011;41120;51.820;20.804;2023-04-12T08:58:07;15.37;;;9.87;;
51957;SDS011;41120;51.820;20.804;2023-04-12T09:00:43;13.73;;;10.17;;
51957;SDS011;41120;51.820;20.804;2023-04-12T09:03:14;14.47;;;9.60;;
51957;SDS011;41120;51.820;20.804;2023-04-12T09:05:43;11.60;;;8.70;;
51957;SDS011;41120;51.820;20.804;2023-04-12T09:08:15;14.00;;;9.60;;
51957;SDS011;41120;51.820;20.804;2023-04-12T09:10:49;14.90;;;10.10;;
51957;SDS011;41120;51.820;20.804;2023-04-12T09:13:34;18.50;;;11.33;;
51957;SDS011;41120;51.820;20.804;2023-04-12T09:18:50;16.27;;;11.60;;
51957;SDS011;41120;51.820;20.804;2023-04-12T09:21:23;15.03;;;10.87;;
51957;SDS011;41120;51.820;20.804;2023-04-12T09:24:13;18.08;;;11.52;;
51957;SDS011;41120;51.820;20.804;2023-04-12T09:26:40;18.73;;;11.70;;
51957;SDS011;41120;51.820;20.804;2023-04-12T09:34:34;15.90;;;11.57;;
51957;SDS011;41120;51.820;20.804;2023-04-12T09:48:37;18.77;;;11.83;;
51957;SDS011;41120;51.820;20.804;2023-04-12T09:51:07;18.10;;;13.27;;
51957;SDS011;41120;51.820;20.804;2023-04-12T09:53:37;16.87;;;12.30;;
51957;SDS011;41120;51.820;20.804;2023-04-12T09:59:08;17.40;;;12.07;;
51957;SDS011;41120;51.820;20.804;2023-04-12T10:01:39;16.23;;;11.60;;
51957;SDS011;41120;51.820;20.804;2023-04-12T10:04:24;15.07;;;11.10;;
51957;SDS011;41120;51.820;20.804;2023-04-12T10:07:01;14.70;;;11.10;;
51957;SDS011;41120;51.820;20.804;2023-04-12T10:09:28;15.13;;;11.03;;
51957;SDS011;41120;51.820;20.804;2023-04-12T10:12:08;17.37;;;12.33;;
51957;SDS011;41120;51.820;20.804;2023-04-12T10:14:35;16.40;;;12.10;;
51957;SDS011;41120;51.820;20.804;2023-04-12T10:17:03;15.10;;;11.93;;
51957;SDS011;41120;51.820;20.804;2023-04-12T10:19:38;15.13;;;10.33;;
51957;SDS011;41120;51.820;20.804;2023-04-12T10:22:11;14.47;;;11.00;;
51957;SDS011;41120;51.820;20.804;2023-04-12T10:24:38;15.20;;;11.83;;
51957;SDS011;41120;51.820;20.804;2023-04-12T10:27:08;19.97;;;12.80;;
51957;SDS011;41120;51.820;20.804;2023-04-12T10:29:42;19.13;;;13.87;;
51957;SDS011;41120;51.820;20.804;2023-04-12T10:32:23;16.80;;;12.70;;
51957;SDS011;41120;51.820;20.804;2023-04-12T10:34:58;18.33;;;13.90;;
51957;SDS011;41120;51.820;20.804;2023-04-12T10:40:35;21.43;;;14.77;;
51957;SDS011;41120;51.820;20.804;2023-04-12T10:46:45;19.50;;;13.97;;
51957;SDS011;41120;51.820;20.804;2023-04-12T10:49:08;19.53;;;13.63;;
51957;SDS011;41120;51.820;20.804;2023-04-12T10:54:42;19.17;;;14.90;;
51957;SDS011;41120;51.820;20.804;2023-04-12T11:00:09;18.23;;;14.27;;
51957;SDS011;41120;51.820;20.804;2023-04-12T11:03:19;20.43;;;14.07;;
51957;SDS011;41120;51.820;20.804;2023-04-12T11:08:48;19.37;;;13.50;;
51957;SDS011;41120;51.820;20.804;2023-04-12T11:11:30;18.73;;;13.83;;
51957;SDS011;41120;51.820;20.804;2023-04-12T11:13:59;17.93;;;13.03;;
51957;SDS011;41120;51.820;20.804;2023-04-12T11:16:29;18.60;;;13.33;;
51957;SDS011;41120;51.820;20.804;2023-04-12T11:18:58;18.10;;;13.50;;
51957;SDS011;41120;51.820;20.804;2023-04-12T11:21:26;16.97;;;13.00;;
51957;SDS011;41120;51.820;20.804;2023-04-12T11:23:53;17.70;;;13.27;;
51957;SDS011;41120;51.820;20.804;2023-04-12T11:26:22;18.83;;;13.40;;
51957;SDS011;41120;51.820;20.804;2023-04-12T11:34:20;16.80;;;13.10;;
51957;SDS011;41120;51.820;20.804;2023-04-12T11:36:53;19.17;;;14.07;;
51957;SDS011;41120;51.820;20.804;2023-04-12T11:39:25;20.50;;;14.57;;
51957;SDS011;41120;51.820;20.804;2023-04-12T11:41:53;20.60;;;14.50;;
51957;SDS011;41120;51.820;20.804;2023-04-12T11:44:34;31.93;;;20.70;;
51957;SDS011;41120;51.820;20.804;2023-04-12T11:49:54;18.40;;;13.70;;
51957;SDS011;41120;51.820;20.804;2023-04-12T11:55:02;19.73;;;14.23;;
51957;SDS011;41120;51.820;20.804;2023-04-12T11:57:31;19.50;;;14.90;;
51957;SDS011;41120;51.820;20.804;2023-04-12T12:02:58;19.97;;;14.23;;
51957;SDS011;41120;51.820;20.804;2023-04-12T12:05:31;19.57;;;14.03;;
51957;SDS011;41120;51.820;20.804;2023-04-12T12:16:26;20.57;;;13.40;;
51957;SDS011;41120;51.820;20.804;2023-04-12T12:21:53;18.60;;;13.70;;
51957;SDS011;41120;51.820;20.804;2023-04-12T12:32:54;19.03;;;14.20;;
51957;SDS011;41120;51.820;20.804;2023-04-12T12:38:33;18.07;;;13.10;;
51957;SDS011;41120;51.820;20.804;2023-04-12T12:43:58;26.63;;;14.77;;
51957;SDS011;41120;51.820;20.804;2023-04-12T12:46:26;20.13;;;14.00;;
51957;SDS011;41120;51.820;20.804;2023-04-12T12:48:52;20.37;;;13.73;;
51957;SDS011;41120;51.820;20.804;2023-04-12T12:51:32;19.33;;;13.70;;
51957;SDS011;41120;51.820;20.804;2023-04-12T12:54:00;18.90;;;13.03;;
51957;SDS011;41120;51.820;20.804;2023-04-12T13:01:51;17.40;;;13.37;;
51957;SDS011;41120;51.820;20.804;2023-04-12T13:07:13;22.93;;;14.00;;
51957;SDS011;41120;51.820;20.804;2023-04-12T13:09:52;17.67;;;13.60;;
51957;SDS011;41120;51.820;20.804;2023-04-12T13:12:18;19.87;;;13.70;;
51957;SDS011;41120;51.820;20.804;2023-04-12T13:14:46;22.30;;;13.87;;
51957;SDS011;41120;51.820;20.804;2023-04-12T13:17:13;28.20;;;16.07;;
51957;SDS011;41120;51.820;20.804;2023-04-12T13:19:45;18.03;;;13.07;;
51957;SDS011;41120;51.820;20.804;2023-04-12T13:22:13;17.08;;;12.45;;
51957;SDS011;41120;51.820;20.804;2023-04-12T13:24:44;18.50;;;12.73;;
51957;SDS011;41120;51.820;20.804;2023-04-12T13:27:20;15.37;;;11.83;;
51957;SDS011;41120;51.820;20.804;2023-04-12T13:29:58;16.67;;;12.33;;
51957;SDS011;41120;51.820;20.804;2023-04-12T13:35:18;18.23;;;12.27;;
51957;SDS011;41120;51.820;20.804;2023-04-12T13:37:45;17.67;;;12.40;;
51957;SDS011;41120;51.820;20.804;2023-04-12T13:42:46;18.30;;;12.20;;
51957;SDS011;41120;51.820;20.804;2023-04-12T13:45:13;18.83;;;13.07;;
51957;SDS011;41120;51.820;20.804;2023-04-12T13:47:40;17.60;;;12.57;;
51957;SDS011;41120;51.820;20.804;2023-04-12T13:50:12;15.80;;;12.20;;
51957;SDS011;41120;51.820;20.804;2023-04-12T13:52:48;16.08;;;11.77;;
51957;SDS011;41120;51.820;20.804;2023-04-12T13:55:20;16.37;;;12.00;;
51957;SDS011;41120;51.820;20.804;2023-04-12T14:00:45;17.70;;;13.00;;
51957;SDS011;41120;51.820;20.804;2023-04-12T14:03:13;16.03;;;12.13;;
51957;SDS011;41120;51.820;20.804;2023-04-12T14:08:49;16.17;;;12.00;;
51957;SDS011;41120;51.820;20.804;2023-04-12T14:11:17;15.20;;;11.40;;
51957;SDS011;41120;51.820;20.804;2023-04-12T14:13:45;14.60;;;11.47;;
51957;SDS011;41120;51.820;20.804;2023-04-12T14:16:13;15.10;;;10.60;;
51957;SDS011;41120;51.820;20.804;2023-04-12T14:21:33;14.17;;;11.17;;
51957;SDS011;41120;51.820;20.804;2023-04-12T14:24:03;15.70;;;11.03;;
51957;SDS011;41120;51.820;20.804;2023-04-12T14:31:35;15.00;;;11.00;;
51957;SDS011;41120;51.820;20.804;2023-04-12T14:34:14;16.30;;;10.40;;
51957;SDS011;41120;51.820;20.804;2023-04-12T14:36:41;13.67;;;10.67;;
51957;SDS011;41120;51.820;20.804;2023-04-12T14:39:14;15.93;;;10.30;;
51957;SDS011;41120;51.820;20.804;2023-04-12T14:41:54;14.18;;;10.40;;
51957;SDS011;41120;51.820;20.804;2023-04-12T14:44:23;14.40;;;10.30;;
51957;SDS011;41120;51.820;20.804;2023-04-12T14:46:59;13.27;;;9.17;;
51957;SDS011;41120;51.820;20.804;2023-04-12T14:52:00;13.07;;;8.70;;
51957;SDS011;41120;51.820;20.804;2023-04-12T14:54:34;11.33;;;8.97;;
51957;SDS011;41120;51.820;20.804;2023-04-12T14:57:13;12.35;;;8.75;;
51957;SDS011;41120;51.820;20.804;2023-04-12T14:59:49;13.83;;;9.50;;
51957;SDS011;41120;51.820;20.804;2023-04-12T15:04:50;13.53;;;9.57;;
51957;SDS011;41120;51.820;20.804;2023-04-12T15:07:26;12.17;;;9.40;;
51957;SDS011;41120;51.820;20.804;2023-04-12T15:10:00;12.63;;;9.50;;
51957;SDS011;41120;51.820;20.804;2023-04-12T15:15:23;13.67;;;9.17;;
51957;SDS011;41120;51.820;20.804;2023-04-12T15:17:50;15.47;;;9.43;;
51957;SDS011;41120;51.820;20.804;2023-04-12T15:20:24;14.07;;;10.27;;
51957;SDS011;41120;51.820;20.804;2023-04-12T15:22:53;15.63;;;10.47;;
51957;SDS011;41120;51.820;20.804;2023-04-12T15:25:29;13.37;;;10.20;;
51957;SDS011;41120;51.820;20.804;2023-04-12T15:28:10;14.73;;;10.50;;
51957;SDS011;41120;51.820;20.804;2023-04-12T15:30:48;15.37;;;10.83;;
51957;SDS011;41120;51.820;20.804;2023-04-12T15:33:25;14.90;;;10.43;;
51957;SDS011;41120;51.820;20.804;2023-04-12T15:40:59;20.77;;;16.10;;
51957;SDS011;41120;51.820;20.804;2023-04-12T15:45:57;14.70;;;11.17;;
51957;SDS011;41120;51.820;20.804;2023-04-12T15:48:30;15.17;;;10.77;;
51957;SDS011;41120;51.820;20.804;2023-04-12T16:01:13;15.00;;;11.10;;
51957;SDS011;41120;51.820;20.804;2023-04-12T16:03:40;15.90;;;11.27;;
51957;SDS011;41120;51.820;20.804;2023-04-12T16:06:10;16.77;;;11.97;;
51957;SDS011;41120;51.820;20.804;2023-04-12T16:08:52;17.63;;;12.93;;
51957;SDS011;41120;51.820;20.804;2023-04-12T16:11:22;21.33;;;13.20;;
51957;SDS011;41120;51.820;20.804;2023-04-12T16:13:50;18.47;;;13.60;;
51957;SDS011;41120;51.820;20.804;2023-04-12T16:16:20;18.40;;;12.43;;
51957;SDS011;41120;51.820;20.804;2023-04-12T16:18:48;17.30;;;12.43;;
51957;SDS011;41120;51.820;20.804;2023-04-12T16:21:21;17.33;;;11.77;;
51957;SDS011;41120;51.820;20.804;2023-04-12T16:23:54;18.10;;;13.00;;
51957;SDS011;41120;51.820;20.804;2023-04-12T16:26:22;28.07;;;17.73;;
51957;SDS011;41120;51.820;20.804;2023-04-12T16:28:51;18.43;;;11.87;;
51957;SDS011;41120;51.820;20.804;2023-04-12T16:31:22;17.70;;;12.07;;
51957;SDS011;41120;51.820;20.804;2023-04-12T16:33:51;17.23;;;12.70;;
51957;SDS011;41120;51.820;20.804;2023-04-12T16:36:21;21.37;;;14.80;;
51957;SDS011;41120;51.820;20.804;2023-04-12T16:38:52;20.23;;;13.60;;
51957;SDS011;41120;51.820;20.804;2023-04-12T16:41:49;20.03;;;13.87;;
51957;SDS011;41120;51.820;20.804;2023-04-12T16:44:31;21.47;;;14.70;;
51957;SDS011;41120;51.820;20.804;2023-04-12T16:47:16;22.63;;;15.53;;
51957;SDS011;41120;51.820;20.804;2023-04-12T16:49:50;24.13;;;15.40;;
51957;SDS011;41120;51.820;20.804;2023-04-12T16:52:17;29.98;;;17.02;;
51957;SDS011;41120;51.820;20.804;2023-04-12T16:54:54;23.13;;;16.03;;
51957;SDS011;41120;51.820;20.804;2023-04-12T16:57:22;24.77;;;17.60;;
51957;SDS011;41120;51.820;20.804;2023-04-12T16:59:48;30.57;;;21.20;;
51957;SDS011;41120;51.820;20.804;2023-04-12T17:02:16;30.13;;;21.07;;
51957;SDS011;41120;51.820;20.804;2023-04-12T17:04:42;32.07;;;23.77;;
51957;SDS011;41120;51.820;20.804;2023-04-12T17:09:45;47.33;;;42.10;;
51957;SDS011;41120;51.820;20.804;2023-04-12T17:14:43;51.03;;;38.00;;
51957;SDS011;41120;51.820;20.804;2023-04-12T17:17:14;82.40;;;53.67;;
51957;SDS011;41120;51.820;20.804;2023-04-12T17:19:42;156.43;;;92.83;;
51957;SDS011;41120;51.820;20.804;2023-04-12T17:22:13;49.93;;;38.97;;
51957;SDS011;41120;51.820;20.804;2023-04-12T17:24:39;46.20;;;34.43;;
51957;SDS011;41120;51.820;20.804;2023-04-12T17:27:13;34.27;;;23.73;;
51957;SDS011;41120;51.820;20.804;2023-04-12T17:29:41;34.13;;;23.93;;
51957;SDS011;41120;51.820;20.804;2023-04-12T17:32:15;34.00;;;21.30;;
51957;SDS011;41120;51.820;20.804;2023-04-12T17:34:43;54.07;;;33.53;;
51957;SDS011;41120;51.820;20.804;2023-04-12T17:39:43;67.93;;;42.15;;
51957;SDS011;41120;51.820;20.804;2023-04-12T17:42:11;37.07;;;24.53;;
51957;SDS011;41120;51.820;20.804;2023-04-12T17:44:43;30.93;;;21.73;;
51957;SDS011;41120;51.820;20.804;2023-04-12T17:50:09;30.50;;;19.57;;
51957;SDS011;41120;51.820;20.804;2023-04-12T17:52:43;32.27;;;21.03;;
51957;SDS011;41120;51.820;20.804;2023-04-12T17:57:50;211.30;;;116.07;;
51957;SDS011;41120;51.820;20.804;2023-04-12T18:00:21;171.65;;;97.82;;
51957;SDS011;41120;51.820;20.804;2023-04-12T18:02:49;224.00;;;124.67;;
51957;SDS011;41120;51.820;20.804;2023-04-12T18:05:16;166.77;;;93.33;;
51957;SDS011;41120;51.820;20.804;2023-04-12T18:07:43;110.57;;;63.17;;
51957;SDS011;41120;51.820;20.804;2023-04-12T18:10:11;132.03;;;77.40;;
51957;SDS011;41120;51.820;20.804;2023-04-12T18:12:41;168.60;;;99.27;;
51957;SDS011;41120;51.820;20.804;2023-04-12T18:15:09;217.30;;;123.27;;
51957;SDS011;41120;51.820;20.804;2023-04-12T18:17:46;157.27;;;92.80;;
51957;SDS011;41120;51.820;20.804;2023-04-12T18:20:19;107.07;;;65.70;;
51957;SDS011;41120;51.820;20.804;2023-04-12T18:22:49;143.07;;;93.00;;
51957;SDS011;41120;51.820;20.804;2023-04-12T18:25:21;114.33;;;76.43;;
51957;SDS011;41120;51.820;20.804;2023-04-12T18:28:06;73.05;;;48.45;;
51957;SDS011;41120;51.820;20.804;2023-04-12T18:30:34;61.25;;;38.97;;
51957;SDS011;41120;51.820;20.804;2023-04-12T18:33:16;84.95;;;52.70;;
51957;SDS011;41120;51.820;20.804;2023-04-12T18:35:47;80.25;;;50.03;;
51957;SDS011;41120;51.820;20.804;2023-04-12T18:38:19;60.97;;;35.15;;
51957;SDS011;41120;51.820;20.804;2023-04-12T18:46:18;99.40;;;61.15;;
51957;SDS011;41120;51.820;20.804;2023-04-12T18:48:47;65.40;;;38.33;;
51957;SDS011;41120;51.820;20.804;2023-04-12T18:51:18;56.13;;;33.90;;
51957;SDS011;41120;51.820;20.804;2023-04-12T18:53:58;56.58;;;33.72;;
51957;SDS011;41120;51.820;20.804;2023-04-12T18:56:28;52.78;;;31.88;;
51957;SDS011;41120;51.820;20.804;2023-04-12T18:58:57;49.35;;;31.70;;
51957;SDS011;41120;51.820;20.804;2023-04-12T19:01:26;68.95;;;36.78;;
51957;SDS011;41120;51.820;20.804;2023-04-12T19:04:03;65.93;;;38.10;;
51957;SDS011;41120;51.820;20.804;2023-04-12T19:06:48;69.75;;;37.92;;
51957;SDS011;41120;51.820;20.804;2023-04-12T19:09:17;64.47;;;37.47;;
51957;SDS011;41120;51.820;20.804;2023-04-12T19:14:13;83.60;;;53.70;;
51957;SDS011;41120;51.820;20.804;2023-04-12T19:16:39;63.42;;;34.08;;
51957;SDS011;41120;51.820;20.804;2023-04-12T19:19:15;64.18;;;35.08;;
51957;SDS011;41120;51.820;20.804;2023-04-12T19:21:41;67.10;;;35.38;;
51957;SDS011;41120;51.820;20.804;2023-04-12T19:26:44;85.50;;;45.10;;
51957;SDS011;41120;51.820;20.804;2023-04-12T19:29:19;80.15;;;46.15;;
51957;SDS011;41120;51.820;20.804;2023-04-12T19:31:52;72.88;;;41.28;;
51957;SDS011;41120;51.820;20.804;2023-04-12T19:34:19;70.00;;;39.88;;
51957;SDS011;41120;51.820;20.804;2023-04-12T19:48:01;75.50;;;39.33;;
51957;SDS011;41120;51.820;20.804;2023-04-12T19:50:31;95.57;;;44.67;;
51957;SDS011;41120;51.820;20.804;2023-04-12T19:53:07;109.28;;;51.95;;
51957;SDS011;41120;51.820;20.804;2023-04-12T19:55:40;110.05;;;50.75;;
51957;SDS011;41120;51.820;20.804;2023-04-12T19:58:13;103.82;;;53.70;;
51957;SDS011;41120;51.820;20.804;2023-04-12T20:00:49;105.35;;;56.97;;
51957;SDS011;41120;51.820;20.804;2023-04-12T20:03:26;98.28;;;51.92;;
51957;SDS011;41120;51.820;20.804;2023-04-12T20:06:06;89.22;;;45.22;;
51957;SDS011;41120;51.820;20.804;2023-04-12T20:08:39;103.72;;;51.45;;
51957;SDS011;41120;51.820;20.804;2023-04-12T20:11:13;112.38;;;56.88;;
51957;SDS011;41120;51.820;20.804;2023-04-12T20:13:39;111.30;;;57.63;;
51957;SDS011;41120;51.820;20.804;2023-04-12T20:16:06;105.80;;;53.17;;
51957;SDS011;41120;51.820;20.804;2023-04-12T20:18:35;81.68;;;40.90;;
51957;SDS011;41120;51.820;20.804;2023-04-12T20:21:02;75.22;;;38.42;;
51957;SDS011;41120;51.820;20.804;2023-04-12T20:23:34;91.45;;;45.13;;
51957;SDS011;41120;51.820;20.804;2023-04-12T20:28:31;128.93;;;65.70;;
51957;SDS011;41120;51.820;20.804;2023-04-12T20:31:21;129.13;;;61.08;;
51957;SDS011;41120;51.820;20.804;2023-04-12T20:33:51;126.95;;;60.95;;
51957;SDS011;41120;51.820;20.804;2023-04-12T20:40:16;194.02;;;89.82;;
51957;SDS011;41120;51.820;20.804;2023-04-12T20:47:00;155.07;;;72.35;;
51957;SDS011;41120;51.820;20.804;2023-04-12T20:50:00;131.32;;;60.95;;
51957;SDS011;41120;51.820;20.804;2023-04-12T20:52:43;124.80;;;60.88;;
51957;SDS011;41120;51.820;20.804;2023-04-12T20:55:22;134.10;;;63.88;;
51957;SDS011;41120;51.820;20.804;2023-04-12T20:58:07;123.18;;;58.53;;
51957;SDS011;41120;51.820;20.804;2023-04-12T21:01:02;121.85;;;58.08;;
51957;SDS011;41120;51.820;20.804;2023-04-12T21:03:34;121.75;;;59.28;;
51957;SDS011;41120;51.820;20.804;2023-04-12T21:06:03;112.30;;;54.65;;
51957;SDS011;41120;51.820;20.804;2023-04-12T21:08:33;120.80;;;62.05;;
51957;SDS011;41120;51.820;20.804;2023-04-12T21:11:01;121.28;;;60.97;;
51957;SDS011;41120;51.820;20.804;2023-04-12T21:13:42;115.97;;;57.27;;
51957;SDS011;41120;51.820;20.804;2023-04-12T21:16:24;101.18;;;51.78;;
51957;SDS011;41120;51.820;20.804;2023-04-12T21:18:51;110.90;;;56.53;;
51957;SDS011;41120;51.820;20.804;2023-04-12T21:21:25;92.93;;;48.30;;
51957;SDS011;41120;51.820;20.804;2023-04-12T21:23:54;108.97;;;51.83;;
51957;SDS011;41120;51.820;20.804;2023-04-12T21:26:24;102.85;;;53.75;;
51957;SDS011;41120;51.820;20.804;2023-04-12T21:28:55;97.85;;;50.05;;
51957;SDS011;41120;51.820;20.804;2023-04-12T21:31:23;101.60;;;52.03;;
51957;SDS011;41120;51.820;20.804;2023-04-12T21:36:33;101.35;;;50.75;;
51957;SDS011;41120;51.820;20.804;2023-04-12T21:41:50;108.40;;;53.28;;
51957;SDS011;41120;51.820;20.804;2023-04-12T21:47:19;112.13;;;53.05;;
51957;SDS011;41120;51.820;20.804;2023-04-12T21:49:52;107.57;;;52.55;;
51957;SDS011;41120;51.820;20.804;2023-04-12T21:52:19;104.10;;;50.80;;
51957;SDS011;41120;51.820;20.804;2023-04-12T21:55:00;113.28;;;52.45;;
51957;SDS011;41120;51.820;20.804;2023-04-12T21:57:43;111.07;;;51.05;;
51957;SDS011;41120;51.820;20.804;2023-04-12T22:00:10;118.38;;;54.78;;